createdAt,value
2022-11-05T00:00:17.860Z,21.57
2022-11-05T00:03:03.309Z,22.37
2022-11-05T00:05:49.336Z,20.27
2022-11-05T00:08:34.767Z,17.27
2022-11-05T00:11:02.562Z,14.43
2022-11-05T00:13:47.879Z,11.20
2022-11-05T00:16:33.178Z,10.93
2022-11-05T00:19:09.950Z,7.93
2022-11-05T00:21:57.609Z,7.30
2022-11-05T00:24:43.831Z,6.27
2022-11-05T00:27:10.848Z,6.53
2022-11-05T00:29:37.542Z,5.40
2022-11-05T00:32:04.430Z,5.47
2022-11-05T00:34:31.056Z,5.60
2022-11-05T00:36:57.728Z,5.57
2022-11-05T00:39:24.794Z,4.67
2022-11-05T00:42:11.405Z,4.90
2022-11-05T00:44:56.727Z,4.27
2022-11-05T00:47:42.091Z,4.33
2022-11-05T00:50:10.559Z,4.10
2022-11-05T00:52:56.195Z,5.10
2022-11-05T00:55:25.651Z,3.93
2022-11-05T00:57:52.424Z,4.23
2022-11-05T01:00:19.169Z,4.90
2022-11-05T01:02:46.136Z,4.70
2022-11-05T01:05:13.677Z,4.93
2022-11-05T01:07:40.617Z,4.57
2022-11-05T01:10:07.733Z,5.60
2022-11-05T01:12:34.569Z,4.40
2022-11-05T01:15:02.219Z,3.70
2022-11-05T01:17:28.872Z,4.77
2022-11-05T01:19:55.589Z,4.80
2022-11-05T01:22:22.332Z,5.20
2022-11-05T01:24:48.916Z,4.97
2022-11-05T01:27:15.527Z,6.13
2022-11-05T01:29:42.349Z,4.90
2022-11-05T01:32:08.947Z,5.50
2022-11-05T01:34:35.586Z,5.60
2022-11-05T01:37:02.161Z,5.67
2022-11-05T01:39:28.829Z,4.80
2022-11-05T01:41:55.508Z,5.60
2022-11-05T01:44:53.346Z,4.77
2022-11-05T01:47:29.645Z,5.13
2022-11-05T01:49:59.400Z,5.40
2022-11-05T01:52:28.680Z,5.23
2022-11-05T01:54:56.010Z,5.87
2022-11-05T01:57:22.785Z,4.83
2022-11-05T01:59:55.653Z,5.10
2022-11-05T02:02:25.148Z,5.60
2022-11-05T02:05:01.394Z,5.10
2022-11-05T02:07:29.290Z,4.93
2022-11-05T02:10:14.013Z,7.10
2022-11-05T02:12:44.851Z,5.20
2022-11-05T02:15:45.504Z,5.10
2022-11-05T02:18:34.240Z,5.73
2022-11-05T02:21:39.615Z,5.70
2022-11-05T02:24:27.405Z,5.70
2022-11-05T02:27:18.845Z,6.27
2022-11-05T02:29:57.597Z,5.17
2022-11-05T02:32:24.229Z,6.40
2022-11-05T02:35:09.635Z,6.30
2022-11-05T02:37:49.377Z,5.80
2022-11-05T02:40:22.343Z,6.57
2022-11-05T02:42:58.020Z,6.07
2022-11-05T02:45:40.398Z,6.40
2022-11-05T02:48:35.067Z,6.43
2022-11-05T02:51:24.442Z,6.00
2022-11-05T02:54:02.449Z,6.17
2022-11-05T02:56:44.019Z,5.47
2022-11-05T02:59:10.764Z,5.80
2022-11-05T03:01:38.948Z,6.17
2022-11-05T03:04:09.781Z,5.73
2022-11-05T03:06:48.428Z,7.97
2022-11-05T03:09:52.745Z,10.57
2022-11-05T03:16:54.624Z,24.27
2022-11-05T03:23:41.714Z,33.40
2022-11-05T03:26:32.666Z,32.07
2022-11-05T03:29:13.166Z,34.93
2022-11-05T03:34:31.402Z,31.00
2022-11-05T03:37:02.596Z,30.63
2022-11-05T03:39:44.098Z,33.47
2022-11-05T03:42:15.563Z,31.63
2022-11-05T03:44:50.881Z,30.53
2022-11-05T03:47:22.678Z,28.37
2022-11-05T03:49:58.544Z,28.97
2022-11-05T03:52:29.725Z,31.33
2022-11-05T03:54:56.515Z,29.90
2022-11-05T03:57:30.948Z,31.90
2022-11-05T03:59:57.576Z,28.30
2022-11-05T04:02:26.619Z,30.70
2022-11-05T04:04:54.080Z,28.83
2022-11-05T04:07:39.399Z,29.97
2022-11-05T04:10:24.952Z,28.30
2022-11-05T04:13:11.770Z,28.80
2022-11-05T04:15:57.654Z,28.43
2022-11-05T04:18:24.252Z,29.60
2022-11-05T04:21:09.539Z,31.07
2022-11-05T04:23:54.906Z,29.13
2022-11-05T04:26:23.417Z,27.03
2022-11-05T04:29:09.754Z,29.07
2022-11-05T04:31:36.977Z,29.40
2022-11-05T04:34:03.960Z,31.13
2022-11-05T04:36:31.089Z,29.50
2022-11-05T04:38:57.731Z,28.37
2022-11-05T04:41:24.492Z,28.97
2022-11-05T04:43:51.287Z,29.00
2022-11-05T04:46:18.030Z,31.30
2022-11-05T04:48:44.919Z,29.75
2022-11-05T04:51:12.656Z,29.97
2022-11-05T04:53:39.278Z,28.93
2022-11-05T04:56:10.390Z,30.70
2022-11-05T04:58:42.809Z,28.53
2022-11-05T05:01:15.045Z,28.77
2022-11-05T05:03:42.255Z,24.97
2022-11-05T05:06:09.537Z,28.27
2022-11-05T05:08:36.293Z,27.20
2022-11-05T05:11:08.042Z,28.47
2022-11-05T05:13:35.191Z,28.73
2022-11-05T05:16:07.128Z,27.98
2022-11-05T05:18:34.347Z,27.30
2022-11-05T05:21:20.114Z,28.63
2022-11-05T05:23:48.258Z,26.87
2022-11-05T05:26:15.991Z,30.50
2022-11-05T05:28:42.687Z,28.80
2022-11-05T05:31:09.549Z,29.60
2022-11-05T05:33:36.515Z,27.40
2022-11-05T05:36:08.436Z,28.27
2022-11-05T05:38:37.700Z,28.00
2022-11-05T05:41:04.567Z,27.03
2022-11-05T05:43:32.553Z,24.73
2022-11-05T05:46:07.542Z,26.08
2022-11-05T05:48:34.719Z,26.40
2022-11-05T05:51:06.424Z,26.60
2022-11-05T05:53:33.771Z,24.30
2022-11-05T05:56:00.929Z,25.00
2022-11-05T05:58:34.927Z,24.90
2022-11-05T06:01:09.601Z,23.80
2022-11-05T06:03:38.728Z,23.10
2022-11-05T06:06:12.923Z,24.60
2022-11-05T06:08:40.224Z,22.30
2022-11-05T06:11:08.318Z,23.08
2022-11-05T06:13:36.614Z,20.83
2022-11-05T06:16:06.394Z,21.00
2022-11-05T06:18:33.876Z,21.55
2022-11-05T06:21:05.493Z,19.98
2022-11-05T06:23:33.165Z,23.52
2022-11-05T06:26:05.468Z,23.70
2022-11-05T06:28:33.471Z,22.48
2022-11-05T06:31:00.775Z,26.70
2022-11-05T06:33:27.704Z,33.72
2022-11-05T06:35:54.965Z,30.77
2022-11-05T06:38:21.670Z,33.58
2022-11-05T06:40:48.322Z,36.60
2022-11-05T06:43:15.118Z,33.88
2022-11-05T06:45:41.962Z,32.28
2022-11-05T06:48:08.624Z,35.08
2022-11-05T06:50:35.281Z,24.42
2022-11-05T06:53:03.847Z,23.55
2022-11-05T06:55:31.825Z,23.60
2022-11-05T06:57:58.566Z,22.10
2022-11-05T07:00:25.512Z,38.53
2022-11-05T07:02:52.130Z,38.47
2022-11-05T07:05:18.864Z,38.38
2022-11-05T07:07:45.744Z,35.75
2022-11-05T07:10:15.715Z,35.10
2022-11-05T07:12:42.947Z,31.33
2022-11-05T07:15:11.710Z,32.33
2022-11-05T07:17:41.564Z,24.88
2022-11-05T07:20:09.346Z,25.92
2022-11-05T07:22:36.360Z,27.90
2022-11-05T07:25:04.043Z,29.33
2022-11-05T07:27:30.711Z,24.25
2022-11-05T07:29:57.337Z,22.08
2022-11-05T07:32:24.023Z,22.17
2022-11-05T07:34:50.652Z,18.58
2022-11-05T07:37:17.251Z,21.00
2022-11-05T07:39:44.913Z,21.88
2022-11-05T07:42:13.640Z,19.33
2022-11-05T07:44:40.590Z,19.02
2022-11-05T07:47:07.765Z,19.38
2022-11-05T07:49:34.469Z,21.27
2022-11-05T07:52:01.042Z,21.98
2022-11-05T07:54:27.700Z,20.45
2022-11-05T07:56:54.321Z,21.48
2022-11-05T07:59:21.012Z,21.90
2022-11-05T08:01:47.851Z,20.40
2022-11-05T08:04:14.646Z,20.50
2022-11-05T08:06:41.310Z,18.35
2022-11-05T08:09:09.005Z,18.70
2022-11-05T08:11:35.941Z,18.60
2022-11-05T08:14:02.589Z,19.10
2022-11-05T08:16:29.316Z,21.40
2022-11-05T08:18:57.062Z,17.43
2022-11-05T08:21:23.678Z,18.80
2022-11-05T08:23:50.310Z,19.30
2022-11-05T08:26:17.101Z,22.70
2022-11-05T08:28:43.738Z,17.87
2022-11-05T08:31:10.403Z,18.73
2022-11-05T08:33:37.250Z,17.40
2022-11-05T08:36:05.154Z,20.80
2022-11-05T08:38:32.184Z,19.03
2022-11-05T08:40:59.009Z,18.37
2022-11-05T08:43:26.346Z,17.30
2022-11-05T08:45:54.073Z,18.97
2022-11-05T08:48:21.020Z,17.63
2022-11-05T08:50:48.975Z,17.77
2022-11-05T08:53:16.369Z,17.23
2022-11-05T08:55:44.169Z,16.87
2022-11-05T08:58:14.912Z,19.77
2022-11-05T09:00:42.771Z,15.10
2022-11-05T09:03:10.945Z,16.50
2022-11-05T09:05:39.484Z,14.87
2022-11-05T09:08:12.054Z,14.93
2022-11-05T09:10:38.955Z,13.10
2022-11-05T09:13:06.302Z,12.20
2022-11-05T09:15:33.779Z,13.20
2022-11-05T09:18:02.939Z,14.07
2022-11-05T09:20:29.689Z,13.00
2022-11-05T09:22:56.287Z,12.87
2022-11-05T09:25:23.503Z,12.53
2022-11-05T09:27:50.133Z,11.90
2022-11-05T09:30:16.810Z,11.77
2022-11-05T09:32:43.445Z,11.10
2022-11-05T09:35:12.174Z,9.90
2022-11-05T09:37:38.958Z,9.53
2022-11-05T09:40:06.548Z,8.93
2022-11-05T09:42:40.621Z,8.60
2022-11-05T09:45:16.665Z,7.60
2022-11-05T09:47:52.130Z,8.23
2022-11-05T09:50:28.421Z,7.37
2022-11-05T09:52:55.056Z,8.00
2022-11-05T09:55:27.813Z,7.00
2022-11-05T09:58:03.471Z,5.37
2022-11-05T10:00:32.332Z,6.23
2022-11-05T10:03:04.312Z,6.40
2022-11-05T10:05:32.507Z,5.90
2022-11-05T10:08:05.081Z,5.37
2022-11-05T10:10:41.080Z,5.30
2022-11-05T10:13:16.321Z,5.77
2022-11-05T10:16:21.016Z,6.30
2022-11-05T10:19:06.027Z,5.20
2022-11-05T10:22:04.411Z,4.27
2022-11-05T10:24:20.815Z,4.10
2022-11-05T10:26:50.533Z,4.43
2022-11-05T10:29:26.560Z,3.93
2022-11-05T10:31:55.159Z,4.00
2022-11-05T10:34:26.015Z,4.60
2022-11-05T10:36:54.239Z,4.90
2022-11-05T10:39:21.732Z,4.73
2022-11-05T10:41:58.032Z,5.97
2022-11-05T10:44:34.742Z,6.60
2022-11-05T10:47:26.533Z,7.13
2022-11-05T10:50:00.343Z,6.70
2022-11-05T10:52:33.811Z,6.83
2022-11-05T10:55:02.981Z,6.60
2022-11-05T10:57:34.429Z,5.77
2022-11-05T11:00:16.690Z,4.97
2022-11-05T11:02:46.198Z,4.10
2022-11-05T11:05:35.692Z,3.67
2022-11-05T11:08:22.641Z,4.63
2022-11-05T11:10:58.596Z,3.80
2022-11-05T11:13:28.471Z,3.50
2022-11-05T11:16:24.388Z,4.17
2022-11-05T11:19:03.130Z,4.17
2022-11-05T11:21:31.563Z,2.83
2022-11-05T11:24:05.119Z,3.00
2022-11-05T11:26:37.080Z,3.03
2022-11-05T11:29:21.528Z,4.40
2022-11-05T11:31:48.217Z,4.00
2022-11-05T11:34:30.322Z,3.63
2022-11-05T11:37:09.041Z,3.67
2022-11-05T11:39:38.321Z,3.20
2022-11-05T11:42:35.863Z,5.60
2022-11-05T11:45:38.791Z,3.80
2022-11-05T11:48:07.748Z,4.87
2022-11-05T11:50:38.617Z,4.07
2022-11-05T11:53:21.627Z,4.07
2022-11-05T11:56:20.684Z,4.93
2022-11-05T11:58:52.862Z,4.83
2022-11-05T12:01:57.979Z,6.20
2022-11-05T12:04:31.004Z,5.20
2022-11-05T12:07:20.077Z,6.10
2022-11-05T12:10:14.544Z,5.70
2022-11-05T12:13:16.718Z,5.40
2022-11-05T12:15:52.851Z,5.17
2022-11-05T12:18:45.140Z,4.83
2022-11-05T12:21:40.780Z,4.13
2022-11-05T12:24:22.466Z,3.83
2022-11-05T12:27:13.153Z,3.70
2022-11-05T12:29:59.911Z,3.50
2022-11-05T12:33:04.522Z,4.00
2022-11-05T12:36:08.469Z,3.57
2022-11-05T12:39:12.957Z,4.50
2022-11-05T12:41:42.643Z,4.30
2022-11-05T12:44:27.412Z,3.60
2022-11-05T12:47:17.502Z,3.47
2022-11-05T12:50:08.864Z,3.37
2022-11-05T12:52:59.047Z,3.13
2022-11-05T12:55:31.567Z,3.97
2022-11-05T12:58:29.752Z,2.90
2022-11-05T13:01:04.793Z,4.03
2022-11-05T13:03:45.967Z,3.70
2022-11-05T13:06:21.391Z,3.83
2022-11-05T13:09:07.639Z,4.00
2022-11-05T13:11:54.272Z,3.50
2022-11-05T13:14:26.697Z,3.37
2022-11-05T13:17:04.188Z,3.90
2022-11-05T13:19:41.139Z,4.23
2022-11-05T13:22:31.277Z,36.33
2022-11-05T13:25:12.998Z,8.13
2022-11-05T13:28:13.491Z,5.10
2022-11-05T13:30:51.598Z,7.37
2022-11-05T13:33:23.577Z,6.90
2022-11-05T13:36:16.347Z,6.33
2022-11-05T13:39:10.741Z,5.73
2022-11-05T13:42:08.613Z,4.50
2022-11-05T13:44:50.277Z,4.83
2022-11-05T13:47:38.813Z,6.10
2022-11-05T13:50:33.736Z,5.43
2022-11-05T13:53:06.761Z,5.90
2022-11-05T13:56:04.723Z,5.50
2022-11-05T13:58:58.921Z,5.23
2022-11-05T14:01:44.769Z,5.90
2022-11-05T14:04:24.917Z,5.63
2022-11-05T14:06:51.795Z,5.13
2022-11-05T14:09:26.337Z,5.77
2022-11-05T14:11:56.178Z,8.73
2022-11-05T14:14:33.985Z,5.00
2022-11-05T14:17:09.727Z,4.43
2022-11-05T14:20:02.652Z,4.53
2022-11-05T14:22:32.073Z,4.53
2022-11-05T14:25:17.670Z,18.00
2022-11-05T14:27:50.771Z,21.67
2022-11-05T14:30:46.535Z,61.30
2022-11-05T14:33:25.490Z,56.60
2022-11-05T14:35:54.085Z,26.57
2022-11-05T14:38:24.701Z,108.37
2022-11-05T14:41:00.657Z,21.47
2022-11-05T14:43:31.624Z,41.83
2022-11-05T14:46:08.648Z,61.23
2022-11-05T14:48:41.914Z,88.60
2022-11-05T14:51:31.579Z,29.77
2022-11-05T14:54:03.750Z,43.63
2022-11-05T14:56:43.409Z,31.57
2022-11-05T14:59:24.950Z,19.03
2022-11-05T15:02:01.743Z,46.13
2022-11-05T15:04:36.728Z,30.73
2022-11-05T15:07:03.534Z,41.93
2022-11-05T15:09:54.534Z,10.03
2022-11-05T15:12:47.780Z,30.17
2022-11-05T15:15:32.056Z,41.67
2022-11-05T15:18:03.628Z,42.30
2022-11-05T15:20:40.402Z,72.63
2022-11-05T15:23:11.833Z,28.50
2022-11-05T15:26:03.289Z,11.30
2022-11-05T15:28:37.582Z,9.80
2022-11-05T15:31:06.659Z,7.10
2022-11-05T15:33:35.126Z,4.87
2022-11-05T15:36:27.462Z,5.80
2022-11-05T15:39:22.917Z,4.80
2022-11-05T15:41:41.547Z,5.27
2022-11-05T15:44:53.031Z,5.60
2022-11-05T15:47:25.628Z,5.33
2022-11-05T15:50:01.393Z,5.03
2022-11-05T15:52:37.416Z,5.27
2022-11-05T15:55:11.980Z,5.20
2022-11-05T15:57:59.548Z,5.60
2022-11-05T16:00:29.527Z,5.20
2022-11-05T16:03:04.635Z,6.20
2022-11-05T16:05:35.157Z,5.90
2022-11-05T16:08:04.381Z,7.37
2022-11-05T16:10:36.713Z,12.70
2022-11-05T16:13:32.704Z,17.35
2022-11-05T16:16:02.218Z,7.00
2022-11-05T16:18:35.105Z,14.20
2022-11-05T16:21:04.765Z,21.37
2022-11-05T16:23:49.674Z,11.98
2022-11-05T16:29:46.941Z,6.50
2022-11-05T16:32:17.720Z,8.27
2022-11-05T16:34:50.946Z,6.93
2022-11-05T16:37:21.522Z,6.90
2022-11-05T16:39:48.233Z,7.30
2022-11-05T16:42:37.529Z,7.90
2022-11-05T16:45:04.469Z,7.78
2022-11-05T16:47:31.490Z,7.27
2022-11-05T16:49:58.649Z,7.70
2022-11-05T16:52:25.460Z,9.10
2022-11-05T16:54:52.226Z,8.93
2022-11-05T16:57:28.429Z,8.55
2022-11-05T16:59:56.906Z,8.37
2022-11-05T17:02:23.577Z,10.33
2022-11-05T17:04:50.396Z,8.63
2022-11-05T17:07:17.279Z,8.60
2022-11-05T17:09:43.916Z,8.20
2022-11-05T17:12:13.849Z,7.90
2022-11-05T17:14:40.601Z,8.23
2022-11-05T17:17:07.476Z,9.00
2022-11-05T17:19:34.163Z,9.10
2022-11-05T17:22:00.828Z,7.90
2022-11-05T17:24:27.443Z,8.35
2022-11-05T17:26:54.638Z,7.93
2022-11-05T17:29:22.338Z,8.38
2022-11-05T17:31:49.175Z,8.55
2022-11-05T17:34:15.794Z,9.10
2022-11-05T17:36:42.416Z,9.60
2022-11-05T17:39:14.061Z,8.35
2022-11-05T17:41:40.710Z,8.30
2022-11-05T17:44:07.536Z,9.50
2022-11-05T17:46:34.294Z,12.80
2022-11-05T17:49:00.973Z,11.10
2022-11-05T17:51:27.627Z,10.23
2022-11-05T17:53:54.237Z,11.75
2022-11-05T17:56:32.520Z,13.20
2022-11-05T17:59:01.340Z,17.53
2022-11-05T18:01:31.096Z,12.18
2022-11-05T18:04:01.242Z,11.10
2022-11-05T18:06:31.940Z,10.40
2022-11-05T18:08:58.552Z,12.20
2022-11-05T18:11:27.286Z,11.03
2022-11-05T18:13:53.938Z,9.00
2022-11-05T18:16:20.531Z,10.18
2022-11-05T18:18:58.823Z,15.85
2022-11-05T18:21:25.597Z,12.40
2022-11-05T18:23:52.242Z,13.23
2022-11-05T18:26:19.496Z,11.45
2022-11-05T18:28:46.289Z,11.98
2022-11-05T18:31:20.704Z,11.50
2022-11-05T18:33:48.809Z,8.23
2022-11-05T18:36:27.718Z,8.90
2022-11-05T18:38:56.452Z,9.80
2022-11-05T18:41:23.284Z,9.77
2022-11-05T18:43:52.052Z,10.45
2022-11-05T18:46:43.166Z,12.13
2022-11-05T18:49:05.697Z,12.23
2022-11-05T18:51:32.536Z,10.25
2022-11-05T18:54:00.887Z,16.58
2022-11-05T18:56:27.655Z,11.45
2022-11-05T18:59:14.833Z,14.98
2022-11-05T19:01:41.294Z,13.02
2022-11-05T19:04:08.263Z,12.98
2022-11-05T19:06:35.866Z,14.40
2022-11-05T19:09:02.912Z,14.57
2022-11-05T19:11:29.616Z,13.52
2022-11-05T19:14:02.473Z,12.95
2022-11-05T19:16:30.894Z,12.02
2022-11-05T19:19:03.747Z,12.27
2022-11-05T19:21:30.979Z,11.18
2022-11-05T19:24:01.240Z,13.68
2022-11-05T19:26:29.215Z,14.05
2022-11-05T19:28:58.750Z,14.95
2022-11-05T19:31:25.897Z,35.33
2022-11-05T19:33:53.647Z,43.08
2022-11-05T19:36:24.212Z,12.55
2022-11-05T19:39:00.425Z,12.15
2022-11-05T19:41:27.684Z,12.90
2022-11-05T19:43:57.982Z,12.68
2022-11-05T19:46:25.371Z,11.18
2022-11-05T19:48:52.693Z,11.77
2022-11-05T19:51:23.333Z,9.73
2022-11-05T19:53:52.614Z,12.38
2022-11-05T19:56:23.473Z,12.25
2022-11-05T19:58:50.542Z,10.55
2022-11-05T20:01:18.543Z,10.52
2022-11-05T20:03:45.721Z,10.15
2022-11-05T20:06:15.357Z,10.95
2022-11-05T20:08:59.896Z,11.52
2022-11-05T20:11:29.098Z,11.70
2022-11-05T20:13:56.729Z,11.10
2022-11-05T20:16:29.525Z,11.35
2022-11-05T20:18:57.565Z,10.63
2022-11-05T20:21:24.272Z,11.40
2022-11-05T20:23:50.857Z,10.18
2022-11-05T20:26:17.476Z,10.00
2022-11-05T20:28:52.553Z,9.37
2022-11-05T20:31:20.546Z,8.60
2022-11-05T20:33:47.372Z,9.30
2022-11-05T20:36:16.354Z,9.20
2022-11-05T20:38:43.291Z,13.20
2022-11-05T20:41:12.697Z,10.13
2022-11-05T20:43:41.026Z,10.77
2022-11-05T20:46:09.272Z,9.30
2022-11-05T20:48:36.216Z,9.20
2022-11-05T20:51:08.910Z,8.57
2022-11-05T20:53:36.458Z,8.93
2022-11-05T20:56:07.829Z,8.47
2022-11-05T20:58:36.409Z,8.15
2022-11-05T21:01:05.011Z,8.93
2022-11-05T21:03:31.743Z,7.93
2022-11-05T21:05:59.870Z,16.43
2022-11-05T21:08:27.734Z,9.20
2022-11-05T21:10:55.482Z,7.20
2022-11-05T21:13:22.628Z,7.80
2022-11-05T21:15:51.392Z,7.50
2022-11-05T21:18:19.848Z,7.40
2022-11-05T21:20:47.534Z,7.70
2022-11-05T21:23:14.734Z,10.20
2022-11-05T21:25:42.270Z,7.65
2022-11-05T21:28:10.726Z,7.97
2022-11-05T21:30:41.428Z,7.15
2022-11-05T21:33:08.848Z,7.25
2022-11-05T21:35:40.697Z,6.45
2022-11-05T21:38:07.480Z,7.60
2022-11-05T21:40:34.152Z,6.60
2022-11-05T21:43:00.859Z,6.78
2022-11-05T21:45:27.711Z,8.18
2022-11-05T21:47:54.492Z,6.20
2022-11-05T21:50:41.293Z,7.15
2022-11-05T21:53:34.146Z,7.20
2022-11-05T21:56:23.545Z,6.60
2022-11-05T21:59:08.915Z,7.13
2022-11-05T22:01:35.640Z,7.88
2022-11-05T22:04:03.374Z,8.63
2022-11-05T22:06:32.976Z,7.60
2022-11-05T22:08:59.662Z,6.38
2022-11-05T22:11:26.282Z,7.28
2022-11-05T22:13:53.413Z,6.95
2022-11-05T22:16:20.253Z,7.25
2022-11-05T22:18:46.893Z,8.02
2022-11-05T22:21:19.724Z,6.13
2022-11-05T22:23:46.348Z,7.10
2022-11-05T22:26:14.032Z,6.85
2022-11-05T22:28:40.623Z,6.95
2022-11-05T22:31:17.392Z,8.52
2022-11-05T22:33:44.302Z,7.43
2022-11-05T22:36:11.598Z,8.77
2022-11-05T22:38:38.520Z,8.95
2022-11-05T22:41:17.608Z,8.50
2022-11-05T22:43:45.175Z,8.10
2022-11-05T22:46:18.416Z,7.10
2022-11-05T22:48:45.539Z,7.07
2022-11-05T22:51:15.107Z,6.63
2022-11-05T22:53:42.326Z,7.60
2022-11-05T22:56:14.862Z,6.80
2022-11-05T22:58:42.185Z,7.40
2022-11-05T23:01:13.745Z,6.90
2022-11-05T23:03:43.291Z,6.53
2022-11-05T23:06:37.107Z,7.53
2022-11-05T23:09:31.071Z,7.88
2022-11-05T23:11:57.729Z,7.32
2022-11-05T23:14:24.675Z,5.65
2022-11-05T23:17:09.932Z,6.00
2022-11-05T23:19:55.400Z,6.97
2022-11-05T23:22:44.150Z,6.45
2022-11-05T23:25:17.044Z,6.70
2022-11-05T23:27:45.804Z,5.95
2022-11-05T23:30:18.764Z,6.72
2022-11-05T23:32:45.567Z,6.82
2022-11-05T23:35:14.204Z,7.43
2022-11-05T23:37:59.809Z,6.50
2022-11-05T23:40:29.174Z,7.60
2022-11-05T23:43:15.101Z,7.25
2022-11-05T23:45:59.036Z,6.80
2022-11-05T23:48:34.811Z,6.50
2022-11-05T23:51:10.305Z,6.93
2022-11-05T23:53:40.091Z,6.80
2022-11-05T23:56:12.843Z,6.65
2022-11-05T23:58:40.292Z,6.82
